createdAt,value
2023-04-25T00:01:47.961Z,1.40
2023-04-25T00:04:14.823Z,1.42
2023-04-25T00:06:41.737Z,1.40
2023-04-25T00:09:10.163Z,1.30
2023-04-25T00:11:39.983Z,1.40
2023-04-25T00:14:07.788Z,1.30
2023-04-25T00:16:36.060Z,1.55
2023-04-25T00:19:03.449Z,1.35
2023-04-25T00:21:30.146Z,1.75
2023-04-25T00:23:57.058Z,1.55
2023-04-25T00:26:23.932Z,1.50
2023-04-25T00:28:50.622Z,1.40
2023-04-25T00:31:17.363Z,1.13
2023-04-25T00:33:44.211Z,1.40
2023-04-25T00:36:11.223Z,1.40
2023-04-25T00:38:39.351Z,1.90
2023-04-25T00:41:08.085Z,1.40
2023-04-25T00:43:35.068Z,1.70
2023-04-25T00:46:02.269Z,1.42
2023-04-25T00:48:29.130Z,1.75
2023-04-25T00:50:58.785Z,1.30
2023-04-25T00:53:27.094Z,1.60
2023-04-25T00:55:54.343Z,1.50
2023-04-25T00:58:21.952Z,1.40
2023-04-25T01:00:50.172Z,1.40
2023-04-25T01:03:18.461Z,1.30
2023-04-25T01:05:45.658Z,1.40
2023-04-25T01:08:14.432Z,1.60
2023-04-25T01:10:41.290Z,1.40
2023-04-25T01:13:08.086Z,1.40
2023-04-25T01:15:36.514Z,1.63
2023-04-25T01:18:03.788Z,1.50
2023-04-25T01:20:30.605Z,1.65
2023-04-25T01:22:57.286Z,1.30
2023-04-25T01:25:24.025Z,1.33
2023-04-25T01:27:50.702Z,1.40
2023-04-25T01:30:17.395Z,1.30
2023-04-25T01:32:44.160Z,1.25
2023-04-25T01:35:12.608Z,1.38
2023-04-25T01:37:43.582Z,1.42
2023-04-25T01:40:11.703Z,1.40
2023-04-25T01:42:40.251Z,1.75
2023-04-25T01:45:08.091Z,1.60
2023-04-25T01:47:36.338Z,1.52
2023-04-25T01:50:07.141Z,1.67
2023-04-25T01:52:33.847Z,2.08
2023-04-25T01:55:02.530Z,1.75
2023-04-25T01:57:29.264Z,1.73
2023-04-25T01:59:59.111Z,1.70
2023-04-25T02:02:25.941Z,1.77
2023-04-25T02:04:52.963Z,1.60
2023-04-25T02:07:19.727Z,1.80
2023-04-25T02:09:46.645Z,1.67
2023-04-25T02:12:13.406Z,1.85
2023-04-25T02:14:40.201Z,1.85
2023-04-25T02:17:07.036Z,1.70
2023-04-25T02:19:33.870Z,1.40
2023-04-25T02:22:00.605Z,1.60
2023-04-25T02:24:29.056Z,1.65
2023-04-25T02:26:57.024Z,1.70
2023-04-25T02:29:24.191Z,1.60
2023-04-25T02:31:51.054Z,1.90
2023-04-25T02:34:17.918Z,1.75
2023-04-25T02:36:44.623Z,1.52
2023-04-25T02:39:11.811Z,1.65
2023-04-25T02:41:38.552Z,1.85
2023-04-25T02:44:05.341Z,1.88
2023-04-25T02:46:38.986Z,1.75
2023-04-25T02:49:07.177Z,1.70
2023-04-25T02:51:33.925Z,1.67
2023-04-25T02:54:00.724Z,1.95
2023-04-25T02:56:27.942Z,2.20
2023-04-25T02:58:54.899Z,1.73
2023-04-25T03:01:21.926Z,2.00
2023-04-25T03:03:49.141Z,2.30
2023-04-25T03:06:16.887Z,2.35
2023-04-25T03:08:44.075Z,2.38
2023-04-25T03:11:11.502Z,2.65
2023-04-25T03:13:38.343Z,2.33
2023-04-25T03:16:05.498Z,2.05
2023-04-25T03:18:32.299Z,2.00
2023-04-25T03:20:58.992Z,2.00
2023-04-25T03:23:25.753Z,2.40
2023-04-25T03:25:52.406Z,2.05
2023-04-25T03:28:19.152Z,2.47
2023-04-25T03:30:45.823Z,2.60
2023-04-25T03:33:12.643Z,2.58
2023-04-25T03:35:39.338Z,2.40
2023-04-25T03:38:06.051Z,2.65
2023-04-25T03:40:32.816Z,2.55
2023-04-25T03:42:59.540Z,2.72
2023-04-25T03:45:26.618Z,2.22
2023-04-25T03:47:53.325Z,2.35
2023-04-25T03:50:20.068Z,2.40
2023-04-25T03:52:46.802Z,2.70
2023-04-25T03:55:13.516Z,2.17
2023-04-25T03:57:40.261Z,2.13
2023-04-25T04:00:07.773Z,2.85
2023-04-25T04:02:36.410Z,2.42
2023-04-25T04:05:04.559Z,2.65
2023-04-25T04:07:34.142Z,2.90
2023-04-25T04:10:01.617Z,2.60
2023-04-25T04:12:28.737Z,2.83
2023-04-25T04:14:55.968Z,3.28
2023-04-25T04:17:23.093Z,2.85
2023-04-25T04:19:49.855Z,2.65
2023-04-25T04:22:24.334Z,2.85
2023-04-25T04:24:51.163Z,3.53
2023-04-25T04:27:22.473Z,3.55
2023-04-25T04:29:49.371Z,3.10
2023-04-25T04:32:16.929Z,3.30
2023-04-25T04:34:43.665Z,3.05
2023-04-25T04:37:10.889Z,2.90
2023-04-25T04:39:37.936Z,2.67
2023-04-25T04:42:06.094Z,2.70
2023-04-25T04:44:36.508Z,2.88
2023-04-25T04:47:04.888Z,2.95
2023-04-25T04:49:31.816Z,2.75
2023-04-25T04:51:59.735Z,2.30
2023-04-25T04:54:26.939Z,2.47
2023-04-25T04:56:53.899Z,2.25
2023-04-25T04:59:20.816Z,2.45
2023-04-25T05:01:47.987Z,2.55
2023-04-25T05:04:14.854Z,2.50
2023-04-25T05:06:41.596Z,3.10
2023-04-25T05:09:08.332Z,2.70
2023-04-25T05:11:35.003Z,3.15
2023-04-25T05:14:01.716Z,2.58
2023-04-25T05:16:28.467Z,3.00
2023-04-25T05:18:55.382Z,2.50
2023-04-25T05:21:22.279Z,2.95
2023-04-25T05:23:49.107Z,3.45
2023-04-25T05:26:16.003Z,2.55
2023-04-25T05:28:43.298Z,2.97
2023-04-25T05:31:11.672Z,2.50
2023-04-25T05:33:38.422Z,2.47
2023-04-25T05:36:05.461Z,2.47
2023-04-25T05:38:34.691Z,3.22
2023-04-25T05:41:01.879Z,2.95
2023-04-25T05:43:28.577Z,3.08
2023-04-25T05:45:55.390Z,2.88
2023-04-25T05:48:22.353Z,2.92
2023-04-25T05:50:49.239Z,3.65
2023-04-25T05:53:16.008Z,3.03
2023-04-25T05:55:42.660Z,3.60
2023-04-25T05:58:09.382Z,3.70
2023-04-25T06:00:36.078Z,3.47
2023-04-25T06:03:02.965Z,3.60
2023-04-25T06:05:30.133Z,3.70
2023-04-25T06:07:57.026Z,3.30
2023-04-25T06:10:23.841Z,3.67
2023-04-25T06:12:50.602Z,3.45
2023-04-25T06:15:28.036Z,3.13
2023-04-25T06:17:56.139Z,3.10
2023-04-25T06:20:25.038Z,3.05
2023-04-25T06:22:54.789Z,3.25
2023-04-25T06:25:21.585Z,3.40
2023-04-25T06:27:48.344Z,3.65
2023-04-25T06:30:15.135Z,3.00
2023-04-25T06:32:41.873Z,3.42
2023-04-25T06:35:09.022Z,2.90
2023-04-25T06:37:35.868Z,3.30
2023-04-25T06:40:03.543Z,3.47
2023-04-25T06:42:30.226Z,3.05
2023-04-25T06:44:56.942Z,2.63
2023-04-25T06:47:23.719Z,2.65
2023-04-25T06:49:50.961Z,2.53
2023-04-25T06:52:19.103Z,3.25
2023-04-25T06:54:46.403Z,3.00
2023-04-25T06:57:13.091Z,2.72
2023-04-25T06:59:39.812Z,2.42
2023-04-25T07:02:07.173Z,3.17
2023-04-25T07:04:34.063Z,2.97
2023-04-25T07:07:03.766Z,3.20
2023-04-25T07:09:31.054Z,2.90
2023-04-25T07:11:57.789Z,3.00
2023-04-25T07:14:24.491Z,2.65
2023-04-25T07:16:51.202Z,2.70
2023-04-25T07:19:17.976Z,3.08
2023-04-25T07:21:44.621Z,2.92
2023-04-25T07:24:11.304Z,2.90
2023-04-25T07:26:38.496Z,2.83
2023-04-25T07:29:05.452Z,3.00
2023-04-25T07:31:32.167Z,3.40
2023-04-25T07:34:01.314Z,3.20
2023-04-25T07:36:28.596Z,3.17
2023-04-25T07:38:55.353Z,3.33
2023-04-25T07:41:22.002Z,3.25
2023-04-25T07:43:48.666Z,3.28
2023-04-25T07:46:16.335Z,3.95
2023-04-25T07:48:43.123Z,4.53
2023-04-25T07:51:09.746Z,3.50
2023-04-25T07:53:38.754Z,4.18
2023-04-25T07:56:05.901Z,4.07
2023-04-25T07:58:32.928Z,4.70
2023-04-25T08:00:59.928Z,5.07
2023-04-25T08:03:26.966Z,5.00
2023-04-25T08:05:53.932Z,7.22
2023-04-25T08:08:20.939Z,5.90
2023-04-25T08:10:49.185Z,6.28
2023-04-25T08:13:16.062Z,6.28
2023-04-25T08:15:42.746Z,5.53
2023-04-25T08:18:09.629Z,6.10
2023-04-25T08:20:36.746Z,6.80
2023-04-25T08:23:03.430Z,6.80
2023-04-25T08:25:30.085Z,6.85
2023-04-25T08:27:57.229Z,8.02
2023-04-25T08:30:23.985Z,7.82
2023-04-25T08:32:50.768Z,8.05
2023-04-25T08:35:18.559Z,7.80
2023-04-25T08:37:45.224Z,8.05
2023-04-25T08:40:14.201Z,6.95
2023-04-25T08:42:42.348Z,7.05
2023-04-25T08:45:10.085Z,7.70
2023-04-25T08:47:36.896Z,6.35
2023-04-25T08:50:04.792Z,7.28
2023-04-25T08:52:34.072Z,7.45
2023-04-25T08:55:00.850Z,7.88
2023-04-25T08:57:27.666Z,9.10
2023-04-25T08:59:54.537Z,8.50
2023-04-25T09:02:22.142Z,7.80
2023-04-25T09:04:49.288Z,7.38
2023-04-25T09:07:19.712Z,7.78
2023-04-25T09:09:46.487Z,8.82
2023-04-25T09:12:13.293Z,8.10
2023-04-25T09:14:43.957Z,7.93
2023-04-25T09:17:11.049Z,8.30
2023-04-25T09:19:42.007Z,7.93
2023-04-25T09:22:09.608Z,7.75
2023-04-25T09:24:45.348Z,7.95
2023-04-25T09:27:19.616Z,6.82
2023-04-25T09:29:47.464Z,7.57
2023-04-25T09:32:20.321Z,7.30
2023-04-25T09:34:58.854Z,8.30
2023-04-25T09:37:27.538Z,7.15
2023-04-25T09:40:03.260Z,7.82
2023-04-25T09:42:32.606Z,6.88
2023-04-25T09:45:00.060Z,6.88
2023-04-25T09:47:28.005Z,7.28
2023-04-25T09:49:56.250Z,7.32
2023-04-25T09:52:25.828Z,7.53
2023-04-25T09:54:53.050Z,7.40
2023-04-25T09:57:24.249Z,7.43
2023-04-25T09:59:55.778Z,7.47
2023-04-25T10:02:27.122Z,7.63
2023-04-25T10:04:57.457Z,7.35
2023-04-25T10:07:29.598Z,6.18
2023-04-25T10:10:04.201Z,5.22
2023-04-25T10:12:34.564Z,5.65
2023-04-25T10:15:02.521Z,5.72
2023-04-25T10:17:29.592Z,4.32
2023-04-25T10:19:56.645Z,4.13
2023-04-25T10:22:32.719Z,4.25
2023-04-25T10:24:59.354Z,4.68
2023-04-25T10:27:29.111Z,4.60
2023-04-25T10:30:07.386Z,5.10
2023-04-25T10:32:34.654Z,4.88
2023-04-25T10:35:25.481Z,5.53
2023-04-25T10:38:10.690Z,5.20
2023-04-25T10:40:37.773Z,6.22
2023-04-25T10:43:32.581Z,6.97
2023-04-25T10:46:02.985Z,7.97
2023-04-25T10:48:33.069Z,7.20
2023-04-25T10:51:13.114Z,6.63
2023-04-25T10:53:40.021Z,6.85
2023-04-25T10:56:21.247Z,7.53
2023-04-25T10:58:53.069Z,7.28
2023-04-25T11:01:26.584Z,6.90
2023-04-25T11:03:59.571Z,7.78
2023-04-25T11:09:18.307Z,7.05
2023-04-25T11:11:56.378Z,6.85
2023-04-25T11:14:23.817Z,4.70
2023-04-25T11:17:01.027Z,5.15
2023-04-25T11:19:28.893Z,5.15
2023-04-25T11:21:59.660Z,4.70
2023-04-25T11:24:35.636Z,4.22
2023-04-25T11:27:03.728Z,3.70
2023-04-25T11:29:31.876Z,4.18
2023-04-25T11:31:59.576Z,3.92
2023-04-25T11:34:27.105Z,3.90
2023-04-25T11:36:54.372Z,3.72
2023-04-25T11:39:21.450Z,3.47
2023-04-25T11:41:48.434Z,3.75
2023-04-25T11:44:19.142Z,3.03
2023-04-25T11:46:47.369Z,3.72
2023-04-25T11:49:14.999Z,3.33
2023-04-25T11:51:49.312Z,3.47
2023-04-25T11:54:17.559Z,3.40
2023-04-25T11:56:45.580Z,6.07
2023-04-25T11:59:14.428Z,6.65
2023-04-25T12:01:51.724Z,4.20
2023-04-25T12:04:25.832Z,3.28
2023-04-25T12:06:54.421Z,3.70
2023-04-25T12:09:22.957Z,2.75
2023-04-25T12:11:53.878Z,3.58
2023-04-25T12:14:28.353Z,3.80
2023-04-25T12:17:00.465Z,3.90
2023-04-25T12:19:27.979Z,4.13
2023-04-25T12:21:58.579Z,4.45
2023-04-25T12:24:28.729Z,4.05
2023-04-25T12:27:07.096Z,4.00
2023-04-25T12:29:48.791Z,4.65
2023-04-25T12:32:17.210Z,4.43
2023-04-25T12:34:43.876Z,4.60
2023-04-25T12:37:10.814Z,4.30
2023-04-25T12:39:37.745Z,5.03
2023-04-25T12:42:06.897Z,4.50
2023-04-25T12:44:36.067Z,5.00
2023-04-25T12:47:04.226Z,4.95
2023-04-25T12:49:31.281Z,4.75
2023-04-25T12:51:58.274Z,4.45
2023-04-25T12:54:25.751Z,4.55
2023-04-25T12:56:52.620Z,3.88
2023-04-25T12:59:19.655Z,3.80
2023-04-25T13:01:46.652Z,3.60
2023-04-25T13:04:13.582Z,3.85
2023-04-25T13:06:40.612Z,3.80
2023-04-25T13:09:07.982Z,3.90
2023-04-25T13:11:34.765Z,4.28
2023-04-25T13:14:02.091Z,3.70
2023-04-25T13:16:28.868Z,4.03
2023-04-25T13:18:57.313Z,3.60
2023-04-25T13:21:24.542Z,3.83
2023-04-25T13:23:51.816Z,3.45
2023-04-25T13:26:18.882Z,4.20
2023-04-25T13:28:45.958Z,4.15
2023-04-25T13:31:12.658Z,4.50
2023-04-25T13:33:39.343Z,4.10
2023-04-25T13:36:06.756Z,4.30
2023-04-25T13:38:33.739Z,4.43
2023-04-25T13:41:00.676Z,3.97
2023-04-25T13:43:27.370Z,3.85
2023-04-25T13:45:54.094Z,4.38
2023-04-25T13:48:21.337Z,4.80
2023-04-25T13:50:48.119Z,5.80
2023-04-25T13:53:15.016Z,7.15
2023-04-25T13:55:41.747Z,6.65
2023-04-25T13:58:09.151Z,6.45
2023-04-25T14:00:40.417Z,6.18
2023-04-25T14:03:08.990Z,6.55
2023-04-25T14:05:40.101Z,6.72
2023-04-25T14:08:08.278Z,6.22
2023-04-25T14:10:35.678Z,5.43
2023-04-25T14:13:04.388Z,5.38
2023-04-25T14:15:35.079Z,6.07
2023-04-25T14:18:02.473Z,5.50
2023-04-25T14:20:29.518Z,5.47
2023-04-25T14:22:58.216Z,5.65
2023-04-25T14:25:26.470Z,4.55
2023-04-25T14:27:57.105Z,5.47
2023-04-25T14:30:24.368Z,5.35
2023-04-25T14:32:51.462Z,5.35
2023-04-25T14:35:21.755Z,5.03
2023-04-25T14:37:48.941Z,4.72
2023-04-25T14:40:16.903Z,4.70
2023-04-25T14:42:43.692Z,4.20
2023-04-25T14:45:11.087Z,4.55
2023-04-25T14:47:38.514Z,4.35
2023-04-25T14:50:07.148Z,4.10
2023-04-25T14:52:34.463Z,4.50
2023-04-25T14:55:03.190Z,4.80
2023-04-25T14:57:30.203Z,4.28
2023-04-25T14:59:57.401Z,4.30
2023-04-25T15:02:25.502Z,4.63
2023-04-25T15:04:52.642Z,4.28
2023-04-25T15:07:19.464Z,4.55
2023-04-25T15:09:46.276Z,4.35
2023-04-25T15:12:14.294Z,4.82
2023-04-25T15:14:41.420Z,3.60
2023-04-25T15:17:08.282Z,2.85
2023-04-25T15:19:35.597Z,3.35
2023-04-25T15:22:04.339Z,3.97
2023-04-25T15:24:31.170Z,4.20
2023-04-25T15:26:57.974Z,4.30
2023-04-25T15:29:24.871Z,3.63
2023-04-25T15:31:51.924Z,3.53
2023-04-25T15:34:18.891Z,3.67
2023-04-25T15:36:46.860Z,4.45
2023-04-25T15:39:15.066Z,3.35
2023-04-25T15:41:42.197Z,3.80
2023-04-25T15:44:11.223Z,4.05
2023-04-25T15:46:39.260Z,4.47
2023-04-25T15:49:06.163Z,4.78
2023-04-25T15:51:33.845Z,3.92
2023-04-25T15:54:02.650Z,4.80
2023-04-25T15:56:29.486Z,4.53
2023-04-25T15:58:56.148Z,5.28
2023-04-25T16:01:24.564Z,5.00
2023-04-25T16:03:52.465Z,5.20
2023-04-25T16:06:19.704Z,4.78
2023-04-25T16:08:46.504Z,6.20
2023-04-25T16:11:14.920Z,5.15
2023-04-25T16:13:41.829Z,4.43
2023-04-25T16:16:10.208Z,5.00
2023-04-25T16:18:37.087Z,5.63
2023-04-25T16:21:04.045Z,4.93
2023-04-25T16:23:31.392Z,5.30
2023-04-25T16:25:58.220Z,6.13
2023-04-25T16:28:24.994Z,6.28
2023-04-25T16:30:51.872Z,6.05
2023-04-25T16:33:18.774Z,5.47
2023-04-25T16:35:45.592Z,5.65
2023-04-25T16:38:12.438Z,5.47
2023-04-25T16:40:39.162Z,5.20
2023-04-25T16:43:06.106Z,4.95
2023-04-25T16:45:32.989Z,5.22
2023-04-25T16:47:59.690Z,5.00
2023-04-25T16:50:27.193Z,5.40
2023-04-25T16:52:54.866Z,5.30
2023-04-25T16:55:31.727Z,5.78
2023-04-25T16:57:58.981Z,5.45
2023-04-25T17:00:26.015Z,5.35
2023-04-25T17:02:53.104Z,5.82
2023-04-25T17:05:20.883Z,5.75
2023-04-25T17:07:48.243Z,5.43
2023-04-25T17:10:16.334Z,6.22
2023-04-25T17:12:46.930Z,6.80
2023-04-25T17:15:14.418Z,6.20
2023-04-25T17:17:41.813Z,5.63
2023-04-25T17:20:14.255Z,6.75
2023-04-25T17:22:42.228Z,6.15
2023-04-25T17:25:10.282Z,6.53
2023-04-25T17:27:37.632Z,7.40
2023-04-25T17:30:06.589Z,7.65
2023-04-25T17:32:34.347Z,6.78
2023-04-25T17:35:01.555Z,6.50
2023-04-25T17:37:28.964Z,7.47
2023-04-25T17:39:56.098Z,6.88
2023-04-25T17:42:23.605Z,6.63
2023-04-25T17:44:50.866Z,7.75
2023-04-25T17:47:18.260Z,6.35
2023-04-25T17:49:45.592Z,6.07
2023-04-25T17:52:13.211Z,6.55
2023-04-25T17:54:40.708Z,6.93
2023-04-25T17:57:07.466Z,5.70
2023-04-25T17:59:34.275Z,6.85
2023-04-25T18:02:01.412Z,6.53
2023-04-25T18:04:30.221Z,6.43
2023-04-25T18:06:57.227Z,6.70
2023-04-25T18:09:23.906Z,6.65
2023-04-25T18:11:54.064Z,7.15
2023-04-25T18:14:21.867Z,6.97
2023-04-25T18:16:50.733Z,6.90
2023-04-25T18:19:22.096Z,5.78
2023-04-25T18:21:49.835Z,4.63
2023-04-25T18:24:17.909Z,5.53
2023-04-25T18:26:45.222Z,5.05
2023-04-25T18:29:22.035Z,5.18
2023-04-25T18:31:58.741Z,3.95
2023-04-25T18:34:27.644Z,4.30
2023-04-25T18:36:56.466Z,5.03
2023-04-25T18:39:24.643Z,5.20
2023-04-25T18:41:58.738Z,7.30
2023-04-25T18:44:28.225Z,9.32
2023-04-25T18:46:55.204Z,9.00
2023-04-25T18:49:21.933Z,7.47
2023-04-25T18:51:49.254Z,7.45
2023-04-25T18:54:16.250Z,8.40
2023-04-25T18:56:43.042Z,7.40
2023-04-25T18:59:11.178Z,8.45
2023-04-25T19:01:38.434Z,8.20
2023-04-25T19:04:06.670Z,8.18
2023-04-25T19:06:34.025Z,8.73
2023-04-25T19:09:00.822Z,7.45
2023-04-25T19:11:27.521Z,8.55
2023-04-25T19:13:57.051Z,8.63
2023-04-25T19:16:26.288Z,8.38
2023-04-25T19:18:54.779Z,10.75
2023-04-25T19:21:21.584Z,9.35
2023-04-25T19:23:48.488Z,9.32
2023-04-25T19:26:15.188Z,10.05
2023-04-25T19:28:44.389Z,9.68
2023-04-25T19:31:11.923Z,9.07
2023-04-25T19:33:38.748Z,9.02
2023-04-25T19:36:05.635Z,8.93
2023-04-25T19:38:32.347Z,9.07
2023-04-25T19:41:02.028Z,9.60
2023-04-25T19:43:30.948Z,9.95
2023-04-25T19:45:57.811Z,9.70
2023-04-25T19:48:24.486Z,10.10
2023-04-25T19:50:51.252Z,8.55
2023-04-25T19:53:17.920Z,8.75
2023-04-25T19:55:47.983Z,10.48
2023-04-25T19:58:14.821Z,10.40
2023-04-25T20:00:41.663Z,11.02
2023-04-25T20:03:10.802Z,10.93
2023-04-25T20:05:37.815Z,10.32
2023-04-25T20:08:04.769Z,9.10
2023-04-25T20:10:31.822Z,9.88
2023-04-25T20:12:58.766Z,11.35
2023-04-25T20:15:25.721Z,9.73
2023-04-25T20:18:03.315Z,8.40
2023-04-25T20:20:30.259Z,8.88
2023-04-25T20:22:57.110Z,8.95
2023-04-25T20:25:24.184Z,9.30
2023-04-25T20:27:51.405Z,8.70
2023-04-25T20:30:18.581Z,9.63
2023-04-25T20:32:45.895Z,9.20
2023-04-25T20:35:13.725Z,9.23
2023-04-25T20:37:40.689Z,9.02
2023-04-25T20:40:11.334Z,8.70
2023-04-25T20:42:38.448Z,8.05
2023-04-25T20:45:13.506Z,7.72
2023-04-25T20:47:41.102Z,7.95
2023-04-25T20:50:08.486Z,8.27
2023-04-25T20:52:37.338Z,8.30
2023-04-25T20:55:05.468Z,8.57
2023-04-25T20:57:32.370Z,8.45
2023-04-25T20:59:59.139Z,8.02
2023-04-25T21:02:25.917Z,7.93
2023-04-25T21:04:52.666Z,7.93
2023-04-25T21:07:19.836Z,8.90
2023-04-25T21:09:47.310Z,8.30
2023-04-25T21:12:13.991Z,7.97
2023-04-25T21:14:40.717Z,8.85
2023-04-25T21:17:07.495Z,8.45
2023-04-25T21:19:34.376Z,8.90
2023-04-25T21:22:02.356Z,7.38
2023-04-25T21:24:31.214Z,9.38
2023-04-25T21:26:57.921Z,8.57
2023-04-25T21:29:24.623Z,7.53
2023-04-25T21:31:51.362Z,8.20
2023-04-25T21:34:18.244Z,7.50
2023-04-25T21:36:44.948Z,7.88
2023-04-25T21:39:12.430Z,7.40
2023-04-25T21:41:39.235Z,7.05
2023-04-25T21:44:06.681Z,6.63
2023-04-25T21:46:34.135Z,7.47
2023-04-25T21:49:01.124Z,7.32
2023-04-25T21:51:27.850Z,7.97
2023-04-25T21:53:54.528Z,8.02
2023-04-25T21:56:21.298Z,7.45
2023-04-25T21:58:47.980Z,7.32
2023-04-25T22:01:15.884Z,7.75
2023-04-25T22:03:43.092Z,6.43
2023-04-25T22:06:10.013Z,9.57
2023-04-25T22:08:36.922Z,7.40
2023-04-25T22:11:07.101Z,8.30
2023-04-25T22:13:33.938Z,6.97
2023-04-25T22:16:00.659Z,7.60
2023-04-25T22:18:27.429Z,8.73
2023-04-25T22:20:54.626Z,8.05
2023-04-25T22:23:21.302Z,7.65
2023-04-25T22:25:47.980Z,7.88
2023-04-25T22:28:15.113Z,7.82
2023-04-25T22:30:42.325Z,7.53
2023-04-25T22:33:09.149Z,8.00
2023-04-25T22:35:35.986Z,8.25
2023-04-25T22:38:02.703Z,7.95
2023-04-25T22:40:29.431Z,7.70
2023-04-25T22:42:56.508Z,7.90
2023-04-25T22:45:23.179Z,7.55
2023-04-25T22:47:49.973Z,7.18
2023-04-25T22:50:17.294Z,7.60
2023-04-25T22:52:44.088Z,8.32
2023-04-25T22:55:12.516Z,7.75
2023-04-25T22:57:39.564Z,9.40
2023-04-25T23:00:11.589Z,8.50
2023-04-25T23:02:38.436Z,7.88
2023-04-25T23:05:07.188Z,8.75
2023-04-25T23:07:35.015Z,7.18
2023-04-25T23:10:01.821Z,7.22
2023-04-25T23:12:28.650Z,7.43
2023-04-25T23:14:55.281Z,8.48
2023-04-25T23:17:22.013Z,8.40
2023-04-25T23:19:48.682Z,7.60
2023-04-25T23:22:15.333Z,8.43
2023-04-25T23:24:42.106Z,8.48
2023-04-25T23:27:08.834Z,8.05
2023-04-25T23:29:35.533Z,7.85
2023-04-25T23:32:02.242Z,7.50
2023-04-25T23:34:32.554Z,8.32
2023-04-25T23:37:01.498Z,6.65
2023-04-25T23:39:28.432Z,6.85
2023-04-25T23:41:55.214Z,7.30
2023-04-25T23:44:22.314Z,7.25
2023-04-25T23:46:49.779Z,7.32
2023-04-25T23:49:16.443Z,7.22
2023-04-25T23:51:43.240Z,6.82
2023-04-25T23:54:09.979Z,6.57
2023-04-25T23:56:36.669Z,7.05
2023-04-25T23:59:04.017Z,7.50
